sensor_id;sensor_type;location;lat;lon;timestamp;pressure;altitude;pressure_sealevel;temperature;humidity
4133;BME280;2080;51.038;7.008;2023-04-22T00:01:44;75500.78;;;-142.53;100.00
4133;BME280;2080;51.038;7.008;2023-04-22T00:04:09;75496.91;;;-142.53;100.00
4133;BME280;2080;51.038;7.008;2023-04-22T00:06:35;75500.78;;;-142.53;100.00
4133;BME280;2080;51.038;7.008;2023-04-22T00:09:05;75520.22;;;-142.53;100.00
4133;BME280;2080;51.038;7.008;2023-04-22T00:11:30;75508.56;;;-142.53;100.00
4133;BME280;2080;51.038;7.008;2023-04-22T00:13:55;75514.38;;;-142.53;100.00
4133;BME280;2080;51.038;7.008;2023-04-22T00:16:21;75527.97;;;-142.53;100.00
4133;BME280;2080;51.038;7.008;2023-04-22T00:18:46;75543.50;;;-142.53;100.00
4133;BME280;2080;51.038;7.008;2023-04-22T00:21:11;75547.41;;;-142.53;100.00
4133;BME280;2080;51.038;7.008;2023-04-22T00:23:37;75543.50;;;-142.53;100.00
4133;BME280;2080;51.038;7.008;2023-04-22T00:26:02;75539.63;;;-142.53;100.00
4133;BME280;2080;51.038;7.008;2023-04-22T00:28:27;75524.09;;;-142.53;100.00
4133;BME280;2080;51.038;7.008;2023-04-22T00:30:53;75512.44;;;-142.53;100.00
4133;BME280;2080;51.038;7.008;2023-04-22T00:33:21;75508.56;;;-142.53;100.00
4133;BME280;2080;51.038;7.008;2023-04-22T00:35:46;75508.56;;;-142.53;100.00
4133;BME280;2080;51.038;7.008;2023-04-22T00:38:14;75516.34;;;-142.53;100.00
4133;BME280;2080;51.038;7.008;2023-04-22T00:40:39;75537.69;;;-142.53;100.00
4133;BME280;2080;51.038;7.008;2023-04-22T00:43:07;75533.81;;;-142.53;100.00
4133;BME280;2080;51.038;7.008;2023-04-22T00:45:35;75524.09;;;-142.53;100.00
4133;BME280;2080;51.038;7.008;2023-04-22T00:48:01;75520.22;;;-142.53;100.00
4133;BME280;2080;51.038;7.008;2023-04-22T00:50:27;75531.88;;;-142.53;100.00
4133;BME280;2080;51.038;7.008;2023-04-22T00:52:54;75526.03;;;-142.53;100.00
4133;BME280;2080;51.038;7.008;2023-04-22T00:55:22;75527.97;;;-142.53;100.00
4133;BME280;2080;51.038;7.008;2023-04-22T00:57:50;75531.88;;;-142.53;100.00
4133;BME280;2080;51.038;7.008;2023-04-22T01:00:16;75522.16;;;-142.53;100.00
4133;BME280;2080;51.038;7.008;2023-04-22T01:02:44;75524.09;;;-142.53;100.00
4133;BME280;2080;51.038;7.008;2023-04-22T01:05:10;75512.44;;;-142.53;100.00
4133;BME280;2080;51.038;7.008;2023-04-22T01:07:40;75514.38;;;-142.53;100.00
4133;BME280;2080;51.038;7.008;2023-04-22T01:10:06;75504.69;;;-142.53;100.00
4133;BME280;2080;51.038;7.008;2023-04-22T01:12:31;75475.56;;;-142.53;100.00
4133;BME280;2080;51.038;7.008;2023-04-22T01:14:59;75518.28;;;-142.53;100.00
4133;BME280;2080;51.038;7.008;2023-04-22T01:17:28;75518.28;;;-142.53;100.00
4133;BME280;2080;51.038;7.008;2023-04-22T01:19:56;75512.44;;;-142.53;100.00
4133;BME280;2080;51.038;7.008;2023-04-22T01:22:24;75500.78;;;-142.53;100.00
4133;BME280;2080;51.038;7.008;2023-04-22T01:24:52;75512.44;;;-142.53;100.00
4133;BME280;2080;51.038;7.008;2023-04-22T01:27:20;75512.44;;;-142.53;100.00
4133;BME280;2080;51.038;7.008;2023-04-22T01:29:46;75516.34;;;-142.53;100.00
4133;BME280;2080;51.038;7.008;2023-04-22T01:32:12;75516.34;;;-142.53;100.00
4133;BME280;2080;51.038;7.008;2023-04-22T01:34:38;75512.44;;;-142.53;100.00
4133;BME280;2080;51.038;7.008;2023-04-22T01:37:06;75520.22;;;-142.53;100.00
4133;BME280;2080;51.038;7.008;2023-04-22T01:39:31;75522.16;;;-142.53;100.00
4133;BME280;2080;51.038;7.008;2023-04-22T01:42:01;75531.88;;;-142.53;100.00
4133;BME280;2080;51.038;7.008;2023-04-22T01:44:27;75512.44;;;-142.53;100.00
4133;BME280;2080;51.038;7.008;2023-04-22T01:46:53;75508.56;;;-142.53;100.00
4133;BME280;2080;51.038;7.008;2023-04-22T01:49:18;75508.56;;;-142.53;100.00
4133;BME280;2080;51.038;7.008;2023-04-22T01:51:43;75504.69;;;-142.53;100.00
4133;BME280;2080;51.038;7.008;2023-04-22T01:54:11;75504.69;;;-142.53;100.00
4133;BME280;2080;51.038;7.008;2023-04-22T01:56:39;75493.03;;;-142.53;100.00
4133;BME280;2080;51.038;7.008;2023-04-22T01:59:06;75483.31;;;-142.53;100.00
4133;BME280;2080;51.038;7.008;2023-04-22T02:01:34;75473.59;;;-142.53;100.00
4133;BME280;2080;51.038;7.008;2023-04-22T02:03:59;75487.19;;;-142.53;100.00
4133;BME280;2080;51.038;7.008;2023-04-22T02:06:25;75485.25;;;-142.53;100.00
4133;BME280;2080;51.038;7.008;2023-04-22T02:08:54;75477.50;;;-142.53;100.00
4133;BME280;2080;51.038;7.008;2023-04-22T02:11:19;75489.16;;;-142.53;100.00
4133;BME280;2080;51.038;7.008;2023-04-22T02:13:45;75483.31;;;-142.53;100.00
4133;BME280;2080;51.038;7.008;2023-04-22T02:16:11;75485.25;;;-142.53;100.00
4133;BME280;2080;51.038;7.008;2023-04-22T02:18:36;75481.38;;;-142.53;100.00
4133;BME280;2080;51.038;7.008;2023-04-22T02:21:04;75493.03;;;-142.53;100.00
4133;BME280;2080;51.038;7.008;2023-04-22T02:23:32;75481.38;;;-142.53;100.00
4133;BME280;2080;51.038;7.008;2023-04-22T02:26:00;75485.25;;;-142.53;100.00
4133;BME280;2080;51.038;7.008;2023-04-22T02:28:25;75477.50;;;-142.53;100.00
4133;BME280;2080;51.038;7.008;2023-04-22T02:30:53;75461.97;;;-142.53;100.00
4133;BME280;2080;51.038;7.008;2023-04-22T02:33:18;75461.97;;;-142.53;100.00
4133;BME280;2080;51.038;7.008;2023-04-22T02:35:46;75469.72;;;-142.53;100.00
4133;BME280;2080;51.038;7.008;2023-04-22T02:38:11;75475.56;;;-142.53;100.00
4133;BME280;2080;51.038;7.008;2023-04-22T02:40:36;75469.72;;;-142.53;100.00
4133;BME280;2080;51.038;7.008;2023-04-22T02:43:02;75473.59;;;-142.53;100.00
4133;BME280;2080;51.038;7.008;2023-04-22T02:45:30;75481.38;;;-142.53;100.00
4133;BME280;2080;51.038;7.008;2023-04-22T02:47:55;75477.50;;;-142.53;100.00
4133;BME280;2080;51.038;7.008;2023-04-22T02:50:21;75469.72;;;-142.53;100.00
4133;BME280;2080;51.038;7.008;2023-04-22T02:52:46;75454.19;;;-142.53;100.00
4133;BME280;2080;51.038;7.008;2023-04-22T02:55:11;75446.44;;;-142.53;100.00
4133;BME280;2080;51.038;7.008;2023-04-22T02:57:37;75430.88;;;-142.53;100.00
4133;BME280;2080;51.038;7.008;2023-04-22T03:00:02;75430.88;;;-142.53;100.00
4133;BME280;2080;51.038;7.008;2023-04-22T03:02:30;75411.47;;;-142.53;100.00
4133;BME280;2080;51.038;7.008;2023-04-22T03:04:56;75415.34;;;-142.53;100.00
4133;BME280;2080;51.038;7.008;2023-04-22T03:07:23;75405.66;;;-142.53;100.00
4133;BME280;2080;51.038;7.008;2023-04-22T03:09:49;75401.75;;;-142.53;100.00
4133;BME280;2080;51.038;7.008;2023-04-22T03:12:20;75392.06;;;-142.53;100.00
4133;BME280;2080;51.038;7.008;2023-04-22T03:14:45;75384.28;;;-142.53;100.00
4133;BME280;2080;51.038;7.008;2023-04-22T03:17:10;75384.28;;;-142.53;100.00
4133;BME280;2080;51.038;7.008;2023-04-22T03:19:36;75378.47;;;-142.53;100.00
4133;BME280;2080;51.038;7.008;2023-04-22T03:22:03;75364.88;;;-142.53;100.00
4133;BME280;2080;51.038;7.008;2023-04-22T03:24:29;75357.09;;;-142.53;100.00
4133;BME280;2080;51.038;7.008;2023-04-22T03:26:56;75361.00;;;-142.53;100.00
4133;BME280;2080;51.038;7.008;2023-04-22T03:29:26;75364.88;;;-142.53;100.00
4133;BME280;2080;51.038;7.008;2023-04-22T03:31:52;75376.53;;;-142.53;100.00
4133;BME280;2080;51.038;7.008;2023-04-22T03:34:17;75378.47;;;-142.53;100.00
4133;BME280;2080;51.038;7.008;2023-04-22T03:36:45;75380.41;;;-142.53;100.00
4133;BME280;2080;51.038;7.008;2023-04-22T03:39:10;75384.28;;;-142.53;100.00
4133;BME280;2080;51.038;7.008;2023-04-22T03:41:35;75368.75;;;-142.53;100.00
4133;BME280;2080;51.038;7.008;2023-04-22T03:44:01;75368.75;;;-142.53;100.00
4133;BME280;2080;51.038;7.008;2023-04-22T03:46:26;75357.09;;;-142.53;100.00
4133;BME280;2080;51.038;7.008;2023-04-22T03:48:51;75364.88;;;-142.53;100.00
4133;BME280;2080;51.038;7.008;2023-04-22T03:51:19;75355.16;;;-142.53;100.00
4133;BME280;2080;51.038;7.008;2023-04-22T03:53:47;75349.34;;;-142.53;100.00
4133;BME280;2080;51.038;7.008;2023-04-22T03:56:15;75353.22;;;-142.53;100.00
4133;BME280;2080;51.038;7.008;2023-04-22T03:58:43;75349.34;;;-142.53;100.00
4133;BME280;2080;51.038;7.008;2023-04-22T04:01:11;75337.69;;;-142.53;100.00
4133;BME280;2080;51.038;7.008;2023-04-22T04:03:38;75322.16;;;-142.53;100.00
4133;BME280;2080;51.038;7.008;2023-04-22T04:06:04;75310.50;;;-142.53;100.00
4133;BME280;2080;51.038;7.008;2023-04-22T04:08:36;75306.63;;;-142.53;100.00
4133;BME280;2080;51.038;7.008;2023-04-22T04:11:01;75296.91;;;-142.53;100.00
4133;BME280;2080;51.038;7.008;2023-04-22T04:13:29;75289.16;;;-142.53;100.00
4133;BME280;2080;51.038;7.008;2023-04-22T04:15:58;75275.56;;;-142.53;100.00
4133;BME280;2080;51.038;7.008;2023-04-22T04:18:24;75267.78;;;-142.53;100.00
4133;BME280;2080;51.038;7.008;2023-04-22T04:20:50;75263.91;;;-142.53;100.00
4133;BME280;2080;51.038;7.008;2023-04-22T04:23:16;75260.00;;;-142.53;100.00
4133;BME280;2080;51.038;7.008;2023-04-22T04:25:46;75254.19;;;-142.53;100.00
4133;BME280;2080;51.038;7.008;2023-04-22T04:28:12;75236.72;;;-142.53;100.00
4133;BME280;2080;51.038;7.008;2023-04-22T04:30:37;75246.44;;;-142.53;100.00
4133;BME280;2080;51.038;7.008;2023-04-22T04:33:05;75246.44;;;-142.53;100.00
4133;BME280;2080;51.038;7.008;2023-04-22T04:35:34;75244.47;;;-142.53;100.00
4133;BME280;2080;51.038;7.008;2023-04-22T04:38:04;75260.00;;;-142.53;100.00
4133;BME280;2080;51.038;7.008;2023-04-22T04:40:30;75244.47;;;-142.53;100.00
4133;BME280;2080;51.038;7.008;2023-04-22T04:42:56;75230.88;;;-142.53;100.00
4133;BME280;2080;51.038;7.008;2023-04-22T04:45:24;75240.59;;;-142.53;100.00
4133;BME280;2080;51.038;7.008;2023-04-22T04:47:50;75230.88;;;-142.53;100.00
4133;BME280;2080;51.038;7.008;2023-04-22T04:50:17;75227.00;;;-142.53;100.00
4133;BME280;2080;51.038;7.008;2023-04-22T04:52:45;75225.06;;;-142.53;100.00
4133;BME280;2080;51.038;7.008;2023-04-22T04:55:10;75213.41;;;-142.53;100.00
4133;BME280;2080;51.038;7.008;2023-04-22T04:57:41;75205.66;;;-142.53;100.00
4133;BME280;2080;51.038;7.008;2023-04-22T05:00:07;75203.72;;;-142.53;100.00
4133;BME280;2080;51.038;7.008;2023-04-22T05:02:35;75197.88;;;-142.53;100.00
4133;BME280;2080;51.038;7.008;2023-04-22T05:05:02;75182.34;;;-142.53;100.00
4133;BME280;2080;51.038;7.008;2023-04-22T05:07:28;75162.94;;;-142.53;100.00
4133;BME280;2080;51.038;7.008;2023-04-22T05:09:53;75151.28;;;-142.53;100.00
4133;BME280;2080;51.038;7.008;2023-04-22T05:12:19;75143.53;;;-142.53;100.00
4133;BME280;2080;51.038;7.008;2023-04-22T05:14:44;75147.41;;;-142.53;100.00
4133;BME280;2080;51.038;7.008;2023-04-22T05:17:13;75127.97;;;-142.53;100.00
4133;BME280;2080;51.038;7.008;2023-04-22T05:19:43;75120.22;;;-142.53;100.00
4133;BME280;2080;51.038;7.008;2023-04-22T05:22:11;75114.38;;;-142.53;100.00
4133;BME280;2080;51.038;7.008;2023-04-22T05:24:36;75112.44;;;-142.53;100.00
4133;BME280;2080;51.038;7.008;2023-04-22T05:27:02;75100.81;;;-142.53;100.00
4133;BME280;2080;51.038;7.008;2023-04-22T05:29:32;75104.69;;;-142.53;100.00
4133;BME280;2080;51.038;7.008;2023-04-22T05:31:58;75089.16;;;-142.53;99.89
4133;BME280;2080;51.038;7.008;2023-04-22T05:34:26;75085.28;;;-142.53;99.21
4133;BME280;2080;51.038;7.008;2023-04-22T05:36:51;75089.16;;;-142.53;98.57
4133;BME280;2080;51.038;7.008;2023-04-22T05:39:19;75065.84;;;-142.53;95.89
4133;BME280;2080;51.038;7.008;2023-04-22T05:41:44;75042.56;;;-142.53;93.84
4133;BME280;2080;51.038;7.008;2023-04-22T05:44:12;75021.19;;;-142.53;93.08
4133;BME280;2080;51.038;7.008;2023-04-22T05:46:37;75005.66;;;-142.53;92.66
4133;BME280;2080;51.038;7.008;2023-04-22T05:49:03;74966.84;;;-142.53;90.88
4133;BME280;2080;51.038;7.008;2023-04-22T05:51:28;74949.38;;;-142.53;90.27
4133;BME280;2080;51.038;7.008;2023-04-22T05:53:56;74922.19;;;-142.53;89.36
4133;BME280;2080;51.038;7.008;2023-04-22T05:56:27;74910.53;;;-142.53;87.73
4133;BME280;2080;51.038;7.008;2023-04-22T05:58:52;74895.00;;;-142.53;86.79
4133;BME280;2080;51.038;7.008;2023-04-22T06:01:17;74879.47;;;-142.53;85.33
4133;BME280;2080;51.038;7.008;2023-04-22T06:03:45;74879.47;;;-142.53;85.25
4133;BME280;2080;51.038;7.008;2023-04-22T06:06:13;74879.47;;;-142.53;84.83
4133;BME280;2080;51.038;7.008;2023-04-22T06:08:41;74871.69;;;-142.53;84.46
4133;BME280;2080;51.038;7.008;2023-04-22T06:11:09;74883.34;;;-142.53;83.87
4133;BME280;2080;51.038;7.008;2023-04-22T06:13:36;74863.94;;;-142.53;83.46
4133;BME280;2080;51.038;7.008;2023-04-22T06:16:04;74834.81;;;-142.53;81.86
4133;BME280;2080;51.038;7.008;2023-04-22T06:18:30;74817.34;;;-142.53;80.42
4133;BME280;2080;51.038;7.008;2023-04-22T06:20:56;74805.69;;;-142.53;80.70
4133;BME280;2080;51.038;7.008;2023-04-22T06:23:24;74795.97;;;-142.53;80.12
4133;BME280;2080;51.038;7.008;2023-04-22T06:25:50;74790.16;;;-142.53;79.37
4133;BME280;2080;51.038;7.008;2023-04-22T06:28:17;74774.63;;;-142.53;79.19
4133;BME280;2080;51.038;7.008;2023-04-22T06:30:43;74782.41;;;-142.53;78.57
4133;BME280;2080;51.038;7.008;2023-04-22T06:33:08;74792.09;;;-142.53;79.03
4133;BME280;2080;51.038;7.008;2023-04-22T06:35:35;74786.28;;;-142.53;79.00
4133;BME280;2080;51.038;7.008;2023-04-22T06:38:03;74794.03;;;-142.53;78.65
4133;BME280;2080;51.038;7.008;2023-04-22T06:40:29;74768.81;;;-142.53;78.09
4133;BME280;2080;51.038;7.008;2023-04-22T06:42:56;74762.97;;;-142.53;77.43
4133;BME280;2080;51.038;7.008;2023-04-22T06:45:22;74762.97;;;-142.53;77.09
4133;BME280;2080;51.038;7.008;2023-04-22T06:47:55;74751.34;;;-142.53;76.82
4133;BME280;2080;51.038;7.008;2023-04-22T06:50:20;74737.75;;;-142.53;76.16
4133;BME280;2080;51.038;7.008;2023-04-22T06:52:49;74724.16;;;-142.53;75.41
4133;BME280;2080;51.038;7.008;2023-04-22T06:55:19;74685.31;;;-142.53;74.56
4133;BME280;2080;51.038;7.008;2023-04-22T06:57:51;74683.38;;;-142.53;75.26
4133;BME280;2080;51.038;7.008;2023-04-22T07:00:16;74627.09;;;-142.53;72.87
4133;BME280;2080;51.038;7.008;2023-04-22T07:02:44;74603.78;;;-142.53;71.98
4133;BME280;2080;51.038;7.008;2023-04-22T07:05:12;74572.72;;;-142.53;70.57
4133;BME280;2080;51.038;7.008;2023-04-22T07:07:39;74541.66;;;-142.53;69.82
4133;BME280;2080;51.038;7.008;2023-04-22T07:10:05;74514.50;;;-142.53;67.91
4133;BME280;2080;51.038;7.008;2023-04-22T07:12:33;74491.19;;;-142.53;65.42
4133;BME280;2080;51.038;7.008;2023-04-22T07:15:00;74479.53;;;-142.53;64.80
4133;BME280;2080;51.038;7.008;2023-04-22T07:17:26;74475.66;;;-142.53;64.27
4133;BME280;2080;51.038;7.008;2023-04-22T07:19:51;74471.78;;;-142.53;62.57
4133;BME280;2080;51.038;7.008;2023-04-22T07:22:17;74460.13;;;-142.53;63.48
4133;BME280;2080;51.038;7.008;2023-04-22T07:24:43;74456.25;;;-142.53;61.53
4133;BME280;2080;51.038;7.008;2023-04-22T07:27:10;74425.19;;;-142.53;60.46
4133;BME280;2080;51.038;7.008;2023-04-22T07:29:38;74421.31;;;-142.53;60.34
4133;BME280;2080;51.038;7.008;2023-04-22T07:32:05;74409.66;;;-142.53;59.99
4133;BME280;2080;51.038;7.008;2023-04-22T07:34:31;74405.78;;;-142.53;59.56
4133;BME280;2080;51.038;7.008;2023-04-22T07:36:59;74401.91;;;-142.53;58.12
4133;BME280;2080;51.038;7.008;2023-04-22T07:39:25;74415.47;;;-142.53;57.42
4133;BME280;2080;51.038;7.008;2023-04-22T07:41:50;74403.84;;;-142.53;57.87
4133;BME280;2080;51.038;7.008;2023-04-22T07:44:17;74388.31;;;-142.53;58.47
4133;BME280;2080;51.038;7.008;2023-04-22T07:46:46;74386.38;;;-142.53;55.76
4133;BME280;2080;51.038;7.008;2023-04-22T07:49:11;74368.91;;;-142.53;56.27
4133;BME280;2080;51.038;7.008;2023-04-22T07:51:40;74355.31;;;-142.53;54.07
4133;BME280;2080;51.038;7.008;2023-04-22T07:54:06;74339.78;;;-142.53;53.61
4133;BME280;2080;51.038;7.008;2023-04-22T07:56:32;74335.91;;;-142.53;54.07
4133;BME280;2080;51.038;7.008;2023-04-22T07:58:57;74324.25;;;-142.53;53.58
4133;BME280;2080;51.038;7.008;2023-04-22T08:01:23;74291.25;;;-142.53;51.58
4133;BME280;2080;51.038;7.008;2023-04-22T08:03:48;74295.13;;;-142.53;51.11
4133;BME280;2080;51.038;7.008;2023-04-22T08:06:13;74281.53;;;-142.53;50.22
4133;BME280;2080;51.038;7.008;2023-04-22T08:08:44;74285.44;;;-142.53;50.22
4133;BME280;2080;51.038;7.008;2023-04-22T08:11:12;74285.44;;;-142.53;48.88
4133;BME280;2080;51.038;7.008;2023-04-22T08:13:40;74266.00;;;-142.53;49.47
4133;BME280;2080;51.038;7.008;2023-04-22T08:16:07;74227.19;;;-142.53;48.80
4133;BME280;2080;51.038;7.008;2023-04-22T08:18:34;74219.44;;;-142.53;48.20
4133;BME280;2080;51.038;7.008;2023-04-22T08:21:01;74207.78;;;-142.53;47.43
4133;BME280;2080;51.038;7.008;2023-04-22T08:23:34;74180.59;;;-142.53;47.82
4133;BME280;2080;51.038;7.008;2023-04-22T08:25:59;74167.03;;;-142.53;47.74
4133;BME280;2080;51.038;7.008;2023-04-22T08:28:30;74153.44;;;-142.53;47.28
4133;BME280;2080;51.038;7.008;2023-04-22T08:30:55;74145.66;;;-142.53;45.89
4133;BME280;2080;51.038;7.008;2023-04-22T08:33:21;74102.97;;;-142.53;44.26
4133;BME280;2080;51.038;7.008;2023-04-22T08:35:46;74060.25;;;-142.53;44.39
4133;BME280;2080;51.038;7.008;2023-04-22T08:38:11;74025.31;;;-142.53;43.45
4133;BME280;2080;51.038;7.008;2023-04-22T08:40:39;74044.72;;;-142.53;42.99
4133;BME280;2080;51.038;7.008;2023-04-22T08:43:07;74029.22;;;-142.53;42.17
4133;BME280;2080;51.038;7.008;2023-04-22T08:45:33;74009.78;;;-142.53;41.64
4133;BME280;2080;51.038;7.008;2023-04-22T08:48:01;74025.31;;;-142.53;42.23
4133;BME280;2080;51.038;7.008;2023-04-22T08:50:28;74025.31;;;-142.53;41.48
4133;BME280;2080;51.038;7.008;2023-04-22T08:52:55;74033.09;;;-142.53;41.58
4133;BME280;2080;51.038;7.008;2023-04-22T08:55:21;74002.03;;;-142.53;41.98
4133;BME280;2080;51.038;7.008;2023-04-22T08:57:46;74017.56;;;-142.53;41.43
4133;BME280;2080;51.038;7.008;2023-04-22T09:00:15;74025.31;;;-142.53;41.10
4133;BME280;2080;51.038;7.008;2023-04-22T09:02:43;74011.75;;;-142.53;41.30
4133;BME280;2080;51.038;7.008;2023-04-22T09:05:12;73978.75;;;-142.53;41.15
4133;BME280;2080;51.038;7.008;2023-04-22T09:07:41;73967.09;;;-142.53;41.32
4133;BME280;2080;51.038;7.008;2023-04-22T09:10:07;73967.09;;;-142.53;41.45
4133;BME280;2080;51.038;7.008;2023-04-22T09:12:33;73986.50;;;-142.53;40.60
4133;BME280;2080;51.038;7.008;2023-04-22T09:14:58;74003.97;;;-142.53;40.57
4133;BME280;2080;51.038;7.008;2023-04-22T09:17:34;73978.75;;;-142.53;40.29
4133;BME280;2080;51.038;7.008;2023-04-22T09:20:04;73963.22;;;-142.53;41.12
4133;BME280;2080;51.038;7.008;2023-04-22T09:22:44;73932.16;;;-142.53;40.07
4133;BME280;2080;51.038;7.008;2023-04-22T09:25:20;73916.63;;;-142.53;39.74
4133;BME280;2080;51.038;7.008;2023-04-22T09:27:53;73932.16;;;-142.53;40.24
4133;BME280;2080;51.038;7.008;2023-04-22T09:30:27;73899.16;;;-142.53;40.37
4133;BME280;2080;51.038;7.008;2023-04-22T09:33:04;73893.34;;;-142.53;39.45
4133;BME280;2080;51.038;7.008;2023-04-22T09:35:33;73858.41;;;-142.53;39.31
4133;BME280;2080;51.038;7.008;2023-04-22T09:38:01;73839.00;;;-142.53;38.35
4133;BME280;2080;51.038;7.008;2023-04-22T09:40:28;73823.47;;;-142.53;38.73
4133;BME280;2080;51.038;7.008;2023-04-22T09:42:59;73807.94;;;-142.53;38.89
4133;BME280;2080;51.038;7.008;2023-04-22T09:48:09;73809.88;;;-142.53;39.58
4133;BME280;2080;51.038;7.008;2023-04-22T09:50:36;73784.66;;;-142.53;39.05
4133;BME280;2080;51.038;7.008;2023-04-22T09:53:05;73792.41;;;-142.53;38.40
4133;BME280;2080;51.038;7.008;2023-04-22T09:55:35;73776.88;;;-142.53;37.99
4133;BME280;2080;51.038;7.008;2023-04-22T09:58:08;73802.13;;;-142.53;38.74
4133;BME280;2080;51.038;7.008;2023-04-22T10:00:39;73773.00;;;-142.53;38.39
4133;BME280;2080;51.038;7.008;2023-04-22T10:03:07;73757.47;;;-142.53;38.22
4133;BME280;2080;51.038;7.008;2023-04-22T10:05:35;73749.72;;;-142.53;38.19
4133;BME280;2080;51.038;7.008;2023-04-22T10:08:06;73741.94;;;-142.53;38.51
4133;BME280;2080;51.038;7.008;2023-04-22T10:10:32;73699.25;;;-142.53;38.10
4133;BME280;2080;51.038;7.008;2023-04-22T10:12:59;73668.19;;;-142.53;37.87
4133;BME280;2080;51.038;7.008;2023-04-22T10:15:39;73648.78;;;-142.53;37.31
4133;BME280;2080;51.038;7.008;2023-04-22T10:18:08;73602.22;;;-142.53;37.29
4133;BME280;2080;51.038;7.008;2023-04-22T10:20:36;73578.94;;;-142.53;37.12
4133;BME280;2080;51.038;7.008;2023-04-22T10:23:11;73598.34;;;-142.53;36.41
4133;BME280;2080;51.038;7.008;2023-04-22T10:25:38;73600.28;;;-142.53;36.63
4133;BME280;2080;51.038;7.008;2023-04-22T10:28:07;73641.03;;;-142.53;36.74
4133;BME280;2080;51.038;7.008;2023-04-22T10:30:35;73625.50;;;-142.53;37.34
4133;BME280;2080;51.038;7.008;2023-04-22T10:41:28;73499.34;;;-142.53;36.74
4133;BME280;2080;51.038;7.008;2023-04-22T10:43:57;73446.97;;;-142.53;36.06
4133;BME280;2080;51.038;7.008;2023-04-22T10:49:12;73357.69;;;-142.53;34.53
4133;BME280;2080;51.038;7.008;2023-04-22T10:51:44;73353.81;;;-142.53;34.21
4133;BME280;2080;51.038;7.008;2023-04-22T10:57:06;73346.03;;;-142.53;34.72
4133;BME280;2080;51.038;7.008;2023-04-22T10:59:34;73377.09;;;-142.53;34.64
4133;BME280;2080;51.038;7.008;2023-04-22T11:02:10;73386.78;;;-142.53;34.15
4133;BME280;2080;51.038;7.008;2023-04-22T11:04:39;73423.66;;;-142.53;34.19
4133;BME280;2080;51.038;7.008;2023-04-22T11:09:51;73538.16;;;-142.53;34.75
4133;BME280;2080;51.038;7.008;2023-04-22T11:15:18;73617.75;;;-142.53;35.05
4133;BME280;2080;51.038;7.008;2023-04-22T11:17:50;73617.75;;;-142.53;34.85
4133;BME280;2080;51.038;7.008;2023-04-22T11:20:21;73641.03;;;-142.53;35.21
4133;BME280;2080;51.038;7.008;2023-04-22T11:22:49;73606.09;;;-142.53;35.08
4133;BME280;2080;51.038;7.008;2023-04-22T11:25:15;73551.75;;;-142.53;34.88
4133;BME280;2080;51.038;7.008;2023-04-22T11:27:43;73503.22;;;-142.53;34.63
4133;BME280;2080;51.038;7.008;2023-04-22T11:32:42;73528.47;;;-142.53;33.93
4133;BME280;2080;51.038;7.008;2023-04-22T11:35:14;73466.38;;;-142.53;33.56
4133;BME280;2080;51.038;7.008;2023-04-22T11:40:21;73478.00;;;-142.53;33.28
4133;BME280;2080;51.038;7.008;2023-04-22T11:42:47;73514.88;;;-142.53;33.49
4133;BME280;2080;51.038;7.008;2023-04-22T11:45:16;73567.28;;;-142.53;34.13
4133;BME280;2080;51.038;7.008;2023-04-22T11:47:42;73590.56;;;-142.53;34.45
4133;BME280;2080;51.038;7.008;2023-04-22T11:50:11;73590.56;;;-142.53;34.67
4133;BME280;2080;51.038;7.008;2023-04-22T11:55:29;73594.44;;;-142.53;34.56
4133;BME280;2080;51.038;7.008;2023-04-22T12:00:28;73532.34;;;-142.53;34.91
4133;BME280;2080;51.038;7.008;2023-04-22T12:02:56;73491.59;;;-142.53;34.42
4133;BME280;2080;51.038;7.008;2023-04-22T12:05:41;73470.25;;;-142.53;34.40
4133;BME280;2080;51.038;7.008;2023-04-22T12:08:23;73415.91;;;-142.53;33.96
4133;BME280;2080;51.038;7.008;2023-04-22T12:10:54;73427.56;;;-142.53;34.34
4133;BME280;2080;51.038;7.008;2023-04-22T12:13:22;73427.56;;;-142.53;33.53
4133;BME280;2080;51.038;7.008;2023-04-22T12:15:51;73501.28;;;-142.53;33.69
4133;BME280;2080;51.038;7.008;2023-04-22T12:18:27;73458.59;;;-142.53;34.20
4133;BME280;2080;51.038;7.008;2023-04-22T12:20:58;73443.06;;;-142.53;34.13
4133;BME280;2080;51.038;7.008;2023-04-22T12:23:26;73423.66;;;-142.53;33.61
4133;BME280;2080;51.038;7.008;2023-04-22T12:25:52;73435.31;;;-142.53;34.17
4133;BME280;2080;51.038;7.008;2023-04-22T12:28:20;73412.03;;;-142.53;33.60
4133;BME280;2080;51.038;7.008;2023-04-22T12:30:48;73402.31;;;-142.53;33.54
4133;BME280;2080;51.038;7.008;2023-04-22T12:33:15;73439.19;;;-142.53;34.16
4133;BME280;2080;51.038;7.008;2023-04-22T12:35:41;73431.44;;;-142.53;34.28
4133;BME280;2080;51.038;7.008;2023-04-22T12:38:09;73509.06;;;-142.53;34.06
4133;BME280;2080;51.038;7.008;2023-04-22T12:40:34;73505.19;;;-142.53;34.56
4133;BME280;2080;51.038;7.008;2023-04-22T12:43:02;73466.38;;;-142.53;34.42
4133;BME280;2080;51.038;7.008;2023-04-22T12:45:32;73388.75;;;-142.53;34.44
4133;BME280;2080;51.038;7.008;2023-04-22T12:47:57;73318.88;;;-142.53;33.67
4133;BME280;2080;51.038;7.008;2023-04-22T12:50:23;73334.41;;;-142.53;33.47
4133;BME280;2080;51.038;7.008;2023-04-22T12:52:48;73353.81;;;-142.53;33.50
4133;BME280;2080;51.038;7.008;2023-04-22T12:55:14;73365.44;;;-142.53;33.47
4133;BME280;2080;51.038;7.008;2023-04-22T12:57:39;73400.38;;;-142.53;33.90
4133;BME280;2080;51.038;7.008;2023-04-22T13:00:05;73400.38;;;-142.53;33.93
4133;BME280;2080;51.038;7.008;2023-04-22T13:02:40;73357.69;;;-142.53;34.09
4133;BME280;2080;51.038;7.008;2023-04-22T13:05:05;73353.81;;;-142.53;34.12
4133;BME280;2080;51.038;7.008;2023-04-22T13:07:33;73388.75;;;-142.53;33.91
4133;BME280;2080;51.038;7.008;2023-04-22T13:10:01;73380.97;;;-142.53;33.96
4133;BME280;2080;51.038;7.008;2023-04-22T13:12:26;73412.03;;;-142.53;33.72
4133;BME280;2080;51.038;7.008;2023-04-22T13:14:54;73396.50;;;-142.53;33.96
4133;BME280;2080;51.038;7.008;2023-04-22T13:17:22;73402.31;;;-142.53;33.97
4133;BME280;2080;51.038;7.008;2023-04-22T13:19:49;73415.91;;;-142.53;34.04
4133;BME280;2080;51.038;7.008;2023-04-22T13:22:16;73544.00;;;-142.53;34.82
4133;BME280;2080;51.038;7.008;2023-04-22T13:24:41;73528.47;;;-142.53;34.69
4133;BME280;2080;51.038;7.008;2023-04-22T13:27:09;73512.94;;;-142.53;34.91
4133;BME280;2080;51.038;7.008;2023-04-22T13:29:37;73512.94;;;-142.53;34.99